Time;durP1;ratioP1;P1;durP2;ratioP2;P2;SDS_P1;SDS_P2;PMS_P1;PMS_P2;Temp;Humidity;BMP_temperature;BMP_pressure;BME280_temperature;BME280_humidity;BME280_pressure;Samples;Min_cycle;Max_cycle;Signal;HPM_P1;HPM_P2
2023/05/28 14:28:32;;;;;;;6.30;5.20;;;28.50;25.20;;;;;;21372;6494;108195;-77
2023/05/28 14:31:00;;;;;;;6.20;4.90;;;28.30;26.10;;;;;;20914;6781;116682;-77
2023/05/28 14:33:28;;;;;;;8.47;5.37;;;27.90;26.00;;;;;;20793;6790;119225;-79
2023/05/28 14:35:51;;;;;;;7.78;5.65;;;27.70;26.30;;;;;;20437;6863;338715;-77
2023/05/28 14:38:17;;;;;;;7.03;5.23;;;27.80;26.90;;;;;;20651;6863;117214;-76
2023/05/28 14:40:43;;;;;;;6.22;5.43;;;27.90;25.60;;;;;;20434;6858;307379;-75
2023/05/28 14:43:09;;;;;;;7.03;4.80;;;27.80;25.50;;;;;;20667;6858;117800;-76
2023/05/28 14:45:35;;;;;;;6.43;4.60;;;27.60;26.00;;;;;;20655;6858;117354;-76
2023/05/28 14:48:01;;;;;;;5.57;4.53;;;27.60;25.90;;;;;;20673;6858;117464;-76
2023/05/28 14:50:26;;;;;;;9.07;4.80;;;27.40;26.40;;;;;;20619;6873;117599;-75
2023/05/28 14:52:52;;;;;;;5.70;5.20;;;27.30;26.60;;;;;;20487;6843;308394;-77
2023/05/28 14:55:17;;;;;;;7.20;4.90;;;27.50;25.20;;;;;;20487;6843;294414;-76
2023/05/28 14:57:45;;;;;;;6.87;5.17;;;28.00;25.10;;;;;;20486;6843;342748;-77
2023/05/28 15:00:12;;;;;;;6.47;5.00;;;28.00;25.10;;;;;;20684;6858;118060;-76
2023/05/28 15:02:37;;;;;;;5.67;5.17;;;27.90;24.80;;;;;;20457;6858;278539;-78
2023/05/28 15:05:07;;;;;;;6.90;5.32;;;28.00;24.00;;;;;;20499;6843;307603;-77
2023/05/28 15:07:29;;;;;;;5.50;5.00;;;28.10;24.40;;;;;;20457;6843;307758;-78
2023/05/28 15:09:55;;;;;;;6.97;5.40;;;28.20;23.50;;;;;;20502;6843;278005;-76
2023/05/28 15:12:21;;;;;;;6.53;4.82;;;28.40;24.10;;;;;;20517;6843;307764;-77
2023/05/28 15:14:47;;;;;;;5.43;5.00;;;28.40;24.10;;;;;;20659;6858;118713;-77
2023/05/28 15:17:12;;;;;;;5.00;4.60;;;28.20;24.20;;;;;;20518;6837;307757;-77
2023/05/28 15:19:38;;;;;;;4.80;4.17;;;28.20;23.20;;;;;;20680;6843;120994;-78
2023/05/28 15:22:03;;;;;;;4.80;4.40;;;28.00;23.60;;;;;;20666;6858;118039;-77
2023/05/28 15:24:31;;;;;;;5.65;5.15;;;27.80;24.30;;;;;;20455;6858;279371;-76
2023/05/28 15:30:21;;;;;;;4.70;4.27;;;27.40;24.90;;;;;;20702;6843;117518;-77
2023/05/28 15:32:46;;;;;;;5.53;4.73;;;27.40;24.40;;;;;;20674;6854;117257;-77
2023/05/28 15:35:12;;;;;;;6.43;5.80;;;27.20;24.60;;;;;;20754;6833;117052;-78
2023/05/28 15:37:38;;;;;;;5.77;5.27;;;27.00;24.60;;;;;;20526;6831;278089;-82
2023/05/28 15:40:05;;;;;;;5.90;5.40;;;27.10;24.20;;;;;;20542;6832;307837;-75
2023/05/28 15:42:31;;;;;;;5.60;4.53;;;27.40;24.40;;;;;;20746;6832;117457;-80
2023/05/28 15:44:56;;;;;;;5.95;5.40;;;27.40;24.40;;;;;;20531;6832;281586;-79
2023/05/28 15:47:22;;;;;;;6.73;5.30;;;27.50;25.40;;;;;;20493;6832;334640;-74
2023/05/28 15:49:48;;;;;;;5.80;5.03;;;27.70;24.90;;;;;;20466;6832;309329;-77
2023/05/28 15:52:13;;;;;;;5.37;4.87;;;27.90;24.60;;;;;;20722;6832;117030;-81
2023/05/28 15:54:39;;;;;;;5.33;4.87;;;27.70;24.60;;;;;;20763;6832;117294;-77
2023/05/28 15:57:04;;;;;;;5.90;5.30;;;27.40;24.90;;;;;;20545;6832;307452;-78
2023/05/28 15:59:31;;;;;;;5.30;4.90;;;27.40;24.40;;;;;;20687;6833;117538;-81
2023/05/28 16:01:57;;;;;;;5.83;4.60;;;27.30;24.60;;;;;;20744;6838;117773;-76
2023/05/28 16:04:22;;;;;;;4.83;4.30;;;27.10;25.00;;;;;;20735;6838;118816;-78
2023/05/28 16:06:49;;;;;;;6.55;4.90;;;26.70;25.50;;;;;;20737;6838;117525;-77
2023/05/28 16:09:14;;;;;;;4.37;4.07;;;26.60;25.40;;;;;;20736;6838;117439;-79
2023/05/28 16:11:40;;;;;;;5.90;5.07;;;26.50;25.60;;;;;;20481;6838;342728;-73
2023/05/28 16:14:06;;;;;;;6.80;4.90;;;26.70;25.20;;;;;;20712;6838;118927;-79
2023/05/28 16:16:32;;;;;;;5.77;5.10;;;26.90;25.30;;;;;;20500;6838;307746;-76
2023/05/28 16:18:57;;;;;;;5.80;5.30;;;26.90;25.20;;;;;;20502;6838;310805;-77
2023/05/28 16:21:23;;;;;;;6.33;5.10;;;27.10;24.70;;;;;;20521;6838;283614;-77
2023/05/28 16:23:49;;;;;;;5.90;5.30;;;27.50;24.60;;;;;;20496;6838;336370;-80
2023/05/28 16:26:15;;;;;;;5.90;5.27;;;27.40;24.60;;;;;;20511;6838;307703;-74
2023/05/28 16:28:42;;;;;;;4.97;4.57;;;27.50;25.20;;;;;;20719;6838;117116;-75
2023/05/28 16:31:08;;;;;;;5.27;4.70;;;27.30;25.10;;;;;;20720;6838;117108;-78
2023/05/28 16:33:33;;;;;;;7.90;4.60;;;26.90;25.10;;;;;;20711;6838;118318;-73
2023/05/28 16:35:59;;;;;;;5.20;4.80;;;26.60;25.40;;;;;;20727;6838;117676;-76
2023/05/28 16:38:26;;;;;;;6.10;5.57;;;26.40;25.70;;;;;;20524;6838;295134;-77
2023/05/28 16:40:52;;;;;;;6.10;5.50;;;26.80;26.10;;;;;;20511;6838;277735;-80
2023/05/28 16:43:18;;;;;;;5.33;4.83;;;26.80;26.10;;;;;;20722;6838;117198;-76
2023/05/28 16:45:45;;;;;;;5.33;4.93;;;26.50;26.90;;;;;;20683;6838;118559;-71
2023/05/28 16:48:11;;;;;;;5.67;5.17;;;26.50;26.30;;;;;;20720;6838;118668;-74
2023/05/28 16:50:36;;;;;;;5.80;5.13;;;26.30;26.50;;;;;;20515;6836;340460;-72
2023/05/28 16:53:01;;;;;;;6.12;5.62;;;26.40;26.60;;;;;;20734;6837;119152;-73
2023/05/28 16:55:28;;;;;;;6.68;5.70;;;26.40;27.10;;;;;;20522;6837;307622;-74
2023/05/28 16:57:54;;;;;;;6.80;5.40;;;26.50;26.60;;;;;;20771;6837;118558;-74
2023/05/28 17:00:22;;;;;;;5.80;5.30;;;26.50;26.80;;;;;;20570;6837;278487;-73
2023/05/28 17:02:51;;;;;;;6.20;5.57;;;26.60;27.30;;;;;;20685;6837;66980;-71
2023/05/28 17:05:17;;;;;;;6.75;5.70;;;26.40;27.30;;;;;;20573;6837;306034;-72
2023/05/28 17:07:42;;;;;;;5.17;4.70;;;26.50;27.20;;;;;;20739;6837;117214;-72
2023/05/28 17:10:09;;;;;;;5.95;5.35;;;26.40;27.00;;;;;;20535;6838;277484;-72
2023/05/28 17:12:35;;;;;;;5.53;5.13;;;26.50;26.80;;;;;;20735;6838;117074;-71
2023/05/28 17:15:00;;;;;;;6.12;5.62;;;26.30;26.70;;;;;;20530;6838;342144;-71
2023/05/28 17:17:26;;;;;;;6.68;5.43;;;26.40;27.00;;;;;;20743;6838;121991;-72
2023/05/28 17:19:53;;;;;;;6.68;5.95;;;26.30;26.90;;;;;;20513;6838;296769;-70
2023/05/28 17:22:20;;;;;;;5.73;5.23;;;26.30;27.00;;;;;;20734;6838;117206;-71
2023/05/28 17:24:45;;;;;;;5.27;4.87;;;26.20;27.00;;;;;;20725;6838;118103;-72
2023/05/28 17:27:14;;;;;;;5.47;4.93;;;25.70;27.30;;;;;;20734;6838;122886;-72
2023/05/28 17:29:37;;;;;;;5.93;5.43;;;25.70;27.20;;;;;;20708;6838;124551;-70
2023/05/28 17:32:03;;;;;;;6.30;5.70;;;25.50;27.50;;;;;;20517;6838;337512;-72
2023/05/28 17:34:28;;;;;;;6.90;6.20;;;25.70;27.90;;;;;;20523;6838;281701;-75
2023/05/28 17:36:54;;;;;;;6.43;5.93;;;26.00;27.40;;;;;;20518;6838;277287;-75
2023/05/28 17:39:20;;;;;;;5.80;5.30;;;26.30;27.10;;;;;;20732;6838;117204;-73
2023/05/28 17:41:45;;;;;;;6.67;5.20;;;26.10;27.20;;;;;;20713;6838;117647;-74
2023/05/28 17:44:12;;;;;;;6.68;5.97;;;25.80;27.30;;;;;;20521;6838;277301;-77
2023/05/28 17:46:41;;;;;;;8.17;7.23;;;25.80;27.60;;;;;;20525;6838;281925;-78
2023/05/28 17:49:07;;;;;;;8.03;6.57;;;25.90;27.60;;;;;;20725;6838;117189;-78
2023/05/28 17:51:33;;;;;;;6.20;5.70;;;25.90;27.60;;;;;;20716;6838;117123;-77
2023/05/28 17:54:00;;;;;;;6.20;5.68;;;25.60;27.90;;;;;;20736;6838;117375;-76
2023/05/28 17:56:25;;;;;;;7.47;6.30;;;25.40;28.10;;;;;;20512;6838;307291;-76
2023/05/28 17:58:51;;;;;;;7.37;6.47;;;25.50;28.10;;;;;;20522;6838;306838;-78
2023/05/28 18:01:16;;;;;;;7.73;5.73;;;25.80;28.20;;;;;;20737;6836;117578;-78
2023/05/28 18:03:43;;;;;;;6.28;5.80;;;25.70;28.00;;;;;;20510;6837;278648;-75
2023/05/28 18:06:10;;;;;;;6.17;5.63;;;25.70;28.00;;;;;;20736;6837;117277;-75
2023/05/28 18:08:37;;;;;;;6.47;5.90;;;25.50;28.10;;;;;;20525;6837;277853;-75
2023/05/28 18:11:02;;;;;;;7.33;5.50;;;25.60;28.50;;;;;;20731;6837;117570;-74
2023/05/28 18:13:29;;;;;;;6.17;5.67;;;25.40;28.40;;;;;;20705;6837;119599;-79
2023/05/28 18:15:55;;;;;;;8.40;7.57;;;25.10;28.70;;;;;;20730;6837;117611;-76
2023/05/28 18:18:20;;;;;;;6.47;5.82;;;24.90;28.90;;;;;;20525;6837;277561;-75
2023/05/28 18:20:46;;;;;;;6.03;5.47;;;25.00;29.30;;;;;;20727;6837;118344;-76
2023/05/28 18:23:11;;;;;;;6.87;5.53;;;24.90;29.10;;;;;;20727;6838;117671;-77
2023/05/28 18:25:37;;;;;;;6.65;6.05;;;24.70;29.30;;;;;;20505;6838;277601;-76
2023/05/28 18:28:03;;;;;;;6.47;5.87;;;24.80;29.30;;;;;;20731;6838;117284;-75
2023/05/28 18:30:28;;;;;;;6.50;5.75;;;24.70;29.70;;;;;;20500;6838;280706;-75
2023/05/28 18:33:00;;;;;;;8.48;5.78;;;24.80;29.40;;;;;;20514;6838;328655;-77
2023/05/28 18:35:26;;;;;;;6.20;5.60;;;25.10;29.30;;;;;;20524;6838;330638;-79
2023/05/28 18:37:51;;;;;;;5.70;5.20;;;25.20;29.00;;;;;;20711;6838;123391;-76
2023/05/28 18:43:42;;;;;;;6.32;5.62;;;24.60;29.20;;;;;;20488;6838;311246;-76
2023/05/28 18:46:08;;;;;;;8.25;5.15;;;24.70;29.40;;;;;;20732;6838;117755;-75
2023/05/28 18:48:34;;;;;;;5.50;5.10;;;24.60;29.40;;;;;;20515;6838;307366;-76
2023/05/28 18:51:00;;;;;;;6.30;5.33;;;24.60;29.50;;;;;;20519;6838;306994;-74
2023/05/28 18:53:26;;;;;;;6.35;5.75;;;24.70;29.20;;;;;;20519;6838;306374;-75
2023/05/28 18:55:53;;;;;;;6.47;5.80;;;25.00;29.00;;;;;;20514;6838;278162;-77
2023/05/28 18:58:17;;;;;;;6.43;5.03;;;25.00;29.00;;;;;;20735;6838;123392;-74
2023/05/28 19:00:43;;;;;;;6.70;4.80;;;24.70;29.00;;;;;;20745;6838;123547;-75
2023/05/28 19:03:09;;;;;;;6.07;5.00;;;24.30;29.30;;;;;;20521;6838;277088;-74
2023/05/28 19:05:34;;;;;;;7.25;5.62;;;24.30;29.50;;;;;;20493;6838;306934;-74
2023/05/28 19:08:00;;;;;;;7.10;5.03;;;24.50;29.20;;;;;;20712;6838;117805;-74
2023/05/28 19:10:26;;;;;;;4.95;4.45;;;24.20;29.20;;;;;;20734;6838;117391;-74
2023/05/28 19:12:51;;;;;;;6.27;4.70;;;23.90;29.50;;;;;;20724;6836;118645;-73
2023/05/28 19:15:17;;;;;;;7.67;4.97;;;23.40;30.10;;;;;;20670;6837;117984;-74
2023/05/28 19:17:43;;;;;;;6.12;5.40;;;23.30;30.00;;;;;;20491;6837;337280;-74
2023/05/28 19:20:08;;;;;;;6.13;4.70;;;23.50;30.50;;;;;;20738;6837;118020;-74
2023/05/28 19:22:36;;;;;;;5.43;4.60;;;23.50;30.30;;;;;;20742;6837;117061;-73
2023/05/28 19:25:02;;;;;;;6.70;5.33;;;23.30;30.40;;;;;;20530;6837;305998;-74
2023/05/28 19:27:26;;;;;;;6.23;5.30;;;23.40;30.60;;;;;;20535;6837;306631;-74
2023/05/28 19:29:54;;;;;;;5.40;4.83;;;23.70;30.30;;;;;;20717;6837;118471;-74
2023/05/28 19:32:18;;;;;;;5.87;4.80;;;23.20;30.30;;;;;;20706;6837;117162;-74
2023/05/28 19:34:44;;;;;;;5.40;4.53;;;23.20;30.30;;;;;;20688;6838;117388;-75
2023/05/28 19:37:11;;;;;;;5.40;4.90;;;22.90;30.40;;;;;;20726;6838;118079;-73
2023/05/28 19:39:36;;;;;;;5.83;5.10;;;22.70;30.70;;;;;;20500;6838;307741;-73
2023/05/28 19:42:02;;;;;;;5.78;5.28;;;22.90;30.60;;;;;;20493;6838;306755;-73
2023/05/28 19:44:27;;;;;;;6.00;5.03;;;23.20;30.30;;;;;;20523;6838;277228;-74
2023/05/28 19:46:54;;;;;;;6.63;5.00;;;23.60;30.00;;;;;;20532;6838;311598;-73
2023/05/28 19:49:19;;;;;;;5.82;5.22;;;23.60;30.00;;;;;;20485;6838;285667;-73
2023/05/28 19:51:46;;;;;;;5.80;5.23;;;23.80;29.90;;;;;;20464;6838;297270;-73
2023/05/28 19:54:12;;;;;;;6.20;4.97;;;23.80;29.90;;;;;;20523;6838;307459;-74
2023/05/28 19:56:37;;;;;;;5.80;5.20;;;23.90;29.70;;;;;;20727;6838;117579;-73
2023/05/28 19:59:02;;;;;;;6.37;4.77;;;23.60;29.90;;;;;;20531;6838;277879;-73
2023/05/28 20:01:29;;;;;;;5.20;4.70;;;23.30;30.00;;;;;;20716;6838;117731;-73
2023/05/28 20:03:54;;;;;;;5.67;5.10;;;23.30;30.00;;;;;;20631;6838;117709;-73
2023/05/28 20:06:21;;;;;;;6.77;5.30;;;22.90;30.90;;;;;;20501;6838;312939;-73
2023/05/28 20:08:45;;;;;;;5.85;5.20;;;22.90;30.30;;;;;;20461;6838;310275;-74
2023/05/28 20:11:11;;;;;;;4.80;4.40;;;23.20;30.10;;;;;;20722;6838;117473;-73
2023/05/28 20:13:37;;;;;;;5.15;4.75;;;23.00;30.20;;;;;;20490;6838;307758;-73
2023/05/28 20:16:02;;;;;;;5.15;4.72;;;23.00;30.30;;;;;;20515;6838;328203;-72
2023/05/28 20:18:29;;;;;;;5.07;4.57;;;23.00;30.50;;;;;;20727;6838;117192;-69
2023/05/28 20:20:54;;;;;;;5.97;5.10;;;23.00;30.50;;;;;;20511;6838;339989;-72
2023/05/28 20:23:21;;;;;;;5.17;4.77;;;23.00;30.40;;;;;;20709;6838;117645;-72
2023/05/28 20:25:47;;;;;;;5.57;4.87;;;22.50;31.20;;;;;;20705;6836;120006;-72
2023/05/28 20:28:12;;;;;;;5.10;4.63;;;22.50;31.20;;;;;;20725;6837;117175;-72
2023/05/28 20:30:39;;;;;;;6.73;4.93;;;22.00;31.80;;;;;;20726;6837;117508;-72
2023/05/28 20:33:06;;;;;;;5.27;4.77;;;21.90;31.70;;;;;;20728;6837;117121;-72
2023/05/28 20:35:32;;;;;;;5.72;4.97;;;21.70;32.10;;;;;;20498;6837;306902;-72
2023/05/28 20:38:00;;;;;;;5.47;4.90;;;21.90;32.00;;;;;;20718;6837;122313;-72
2023/05/28 20:40:22;;;;;;;5.37;4.90;;;21.70;32.20;;;;;;20716;6837;117703;-72
2023/05/28 20:42:48;;;;;;;4.70;4.30;;;21.70;32.20;;;;;;20721;6837;117474;-72
2023/05/28 20:45:13;;;;;;;4.87;4.47;;;21.50;32.40;;;;;;20729;6838;117013;-72
2023/05/28 20:47:38;;;;;;;5.37;4.90;;;21.30;32.70;;;;;;20490;6838;307340;-72
2023/05/28 20:50:05;;;;;;;5.75;5.25;;;21.60;33.90;;;;;;20530;6838;312137;-72
2023/05/28 20:52:30;;;;;;;5.97;5.47;;;21.90;33.80;;;;;;20523;6838;277529;-72
2023/05/28 20:54:56;;;;;;;6.90;5.40;;;22.40;33.40;;;;;;20524;6838;278371;-72
2023/05/28 20:57:22;;;;;;;5.60;5.10;;;22.30;33.20;;;;;;20522;6838;336007;-72
2023/05/28 20:59:48;;;;;;;6.05;5.50;;;22.50;32.90;;;;;;20428;6838;401546;-73
2023/05/28 21:02:13;;;;;;;5.63;5.13;;;22.50;32.70;;;;;;20694;6842;125384;-71
2023/05/28 21:04:39;;;;;;;4.93;4.43;;;22.20;32.80;;;;;;20698;6842;117147;-71
2023/05/28 21:07:04;;;;;;;5.77;5.27;;;21.80;33.10;;;;;;20479;6849;280641;-71
2023/05/28 21:09:32;;;;;;;5.50;5.00;;;21.80;33.40;;;;;;20463;6849;281821;-72
2023/05/28 21:11:56;;;;;;;6.50;5.40;;;22.00;33.40;;;;;;20474;6843;279752;-71
2023/05/28 21:14:21;;;;;;;5.10;4.60;;;22.20;32.90;;;;;;20703;6843;117347;-72
2023/05/28 21:16:47;;;;;;;5.97;5.22;;;22.00;33.30;;;;;;20501;6843;278088;-71
2023/05/28 21:19:13;;;;;;;5.00;4.60;;;21.70;33.70;;;;;;20710;6843;117241;-71
2023/05/28 21:21:39;;;;;;;5.13;4.73;;;21.70;33.60;;;;;;20484;6843;278034;-71
2023/05/28 21:24:04;;;;;;;5.05;4.75;;;21.70;33.30;;;;;;20712;6843;117375;-72
2023/05/28 21:26:30;;;;;;;4.50;4.10;;;21.60;33.60;;;;;;20710;6843;118821;-71
2023/05/28 21:28:55;;;;;;;5.43;4.30;;;21.20;34.00;;;;;;20710;6843;117406;-71
2023/05/28 21:31:21;;;;;;;5.03;4.63;;;21.00;34.60;;;;;;20709;6843;117134;-71
2023/05/28 21:33:46;;;;;;;5.60;5.10;;;20.70;35.00;;;;;;20453;6843;308517;-71
2023/05/28 21:36:12;;;;;;;5.33;4.83;;;20.90;35.50;;;;;;20509;6842;278200;-71
2023/05/28 21:38:37;;;;;;;6.00;4.63;;;21.30;35.50;;;;;;20723;6843;117550;-71
2023/05/28 21:41:03;;;;;;;5.40;4.87;;;21.10;35.10;;;;;;20714;6843;117446;-71
2023/05/28 21:43:29;;;;;;;6.10;5.50;;;20.80;35.30;;;;;;20477;6843;311180;-72
2023/05/28 21:45:54;;;;;;;5.68;5.18;;;20.90;36.30;;;;;;20495;6843;336581;-71
2023/05/28 21:48:20;;;;;;;5.60;5.10;;;21.10;35.50;;;;;;20506;6843;282185;-71
2023/05/28 21:50:46;;;;;;;5.70;5.20;;;21.30;35.70;;;;;;20711;6843;117258;-71
2023/05/28 21:53:15;;;;;;;5.72;5.20;;;21.10;35.60;;;;;;20488;6843;318198;-71
2023/05/28 21:55:40;;;;;;;6.20;5.60;;;21.00;35.50;;;;;;20480;6843;341585;-71
2023/05/28 21:58:05;;;;;;;4.97;4.57;;;21.20;35.50;;;;;;20685;6843;117271;-71
2023/05/28 22:00:31;;;;;;;11.38;4.75;;;20.90;35.30;;;;;;20674;6843;117145;-71
2023/05/28 22:02:57;;;;;;;5.63;5.13;;;20.60;35.70;;;;;;20464;6843;278484;-71
2023/05/28 22:05:23;;;;;;;5.87;5.37;;;20.60;36.20;;;;;;20430;6843;310713;-71
2023/05/28 22:07:48;;;;;;;6.07;5.47;;;20.80;36.00;;;;;;20450;6843;278504;-71
2023/05/28 22:10:13;;;;;;;5.77;5.27;;;21.00;35.30;;;;;;20426;6843;319676;-71
2023/05/28 22:12:40;;;;;;;5.50;5.03;;;21.10;35.80;;;;;;20405;6843;310234;-71
2023/05/28 22:15:07;;;;;;;5.10;4.63;;;21.20;35.90;;;;;;20695;6843;117160;-71
2023/05/28 22:17:32;;;;;;;7.83;4.60;;;20.90;35.90;;;;;;20664;6843;117235;-72
2023/05/28 22:19:58;;;;;;;6.63;5.43;;;20.50;36.70;;;;;;20494;6843;279652;-71
2023/05/28 22:22:24;;;;;;;5.70;5.23;;;20.50;36.60;;;;;;20468;6843;311781;-71
2023/05/28 22:24:49;;;;;;;5.20;4.70;;;20.70;36.40;;;;;;20698;6843;117131;-71
2023/05/28 22:27:15;;;;;;;5.62;4.93;;;20.50;36.40;;;;;;20649;6843;118130;-71
2023/05/28 22:29:40;;;;;;;5.70;5.20;;;20.10;36.70;;;;;;20640;6843;119928;-71
2023/05/28 22:32:06;;;;;;;7.12;5.10;;;19.80;37.10;;;;;;20458;6843;286670;-71
2023/05/28 22:34:31;;;;;;;5.37;4.97;;;19.90;37.60;;;;;;20683;6843;123082;-71
2023/05/28 22:36:57;;;;;;;5.50;5.00;;;19.80;37.60;;;;;;20461;6843;308299;-71
2023/05/28 22:39:23;;;;;;;7.70;4.90;;;19.90;38.10;;;;;;20683;6843;117143;-71
2023/05/28 22:41:49;;;;;;;6.45;5.70;;;19.70;38.00;;;;;;20478;6843;308418;-71
2023/05/28 22:44:16;;;;;;;6.17;5.63;;;19.70;38.50;;;;;;20717;6843;117119;-71
2023/05/28 22:46:41;;;;;;;5.87;5.37;;;19.60;38.30;;;;;;20714;6843;124002;-71
2023/05/28 22:49:07;;;;;;;6.93;6.22;;;19.40;38.70;;;;;;20508;6842;309874;-71
2023/05/28 22:51:32;;;;;;;5.77;5.33;;;19.50;39.50;;;;;;20701;6843;129506;-71
2023/05/28 22:53:59;;;;;;;6.43;5.80;;;19.40;39.10;;;;;;20719;6843;118096;-71
2023/05/28 22:56:23;;;;;;;7.20;5.83;;;19.10;39.20;;;;;;20716;6843;117112;-71
2023/05/28 22:58:49;;;;;;;5.97;5.40;;;18.90;39.60;;;;;;20675;6843;117658;-71
2023/05/28 23:01:15;;;;;;;6.97;6.28;;;18.90;40.20;;;;;;20502;6843;278371;-71
2023/05/28 23:03:41;;;;;;;7.47;6.00;;;18.80;40.40;;;;;;20702;6843;118107;-71
2023/05/28 23:06:06;;;;;;;6.57;6.00;;;18.90;40.20;;;;;;20718;6843;117360;-72
2023/05/28 23:08:32;;;;;;;6.90;6.30;;;18.70;40.20;;;;;;20509;6843;278527;-72
2023/05/28 23:10:58;;;;;;;5.80;5.20;;;18.80;40.50;;;;;;20733;6843;116252;-71
2023/05/28 23:13:23;;;;;;;5.93;5.47;;;18.70;40.20;;;;;;20507;6843;283830;-71
2023/05/28 23:15:49;;;;;;;5.77;5.30;;;18.90;40.10;;;;;;20487;6843;279347;-71
2023/05/28 23:18:17;;;;;;;5.90;5.30;;;19.40;39.80;;;;;;20510;6843;278935;-72
2023/05/28 23:20:42;;;;;;;6.27;5.30;;;19.40;39.10;;;;;;20690;6843;117193;-71
2023/05/28 23:23:06;;;;;;;4.87;4.57;;;19.20;39.20;;;;;;20671;6843;117142;-71
2023/05/28 23:25:33;;;;;;;5.70;5.27;;;18.90;40.20;;;;;;20486;6843;313041;-71
2023/05/28 23:27:58;;;;;;;5.63;4.90;;;18.90;40.20;;;;;;20706;6843;117392;-71
2023/05/28 23:30:23;;;;;;;5.97;4.93;;;18.80;40.10;;;;;;20716;6843;117068;-71
2023/05/28 23:32:49;;;;;;;7.45;6.70;;;18.50;40.30;;;;;;20506;6843;342025;-71
2023/05/28 23:35:15;;;;;;;6.60;6.00;;;18.60;40.60;;;;;;20710;6843;117673;-71
2023/05/28 23:37:41;;;;;;;7.53;6.70;;;18.60;40.60;;;;;;20481;6843;331328;-72
2023/05/28 23:40:07;;;;;;;7.47;6.77;;;18.70;40.80;;;;;;20481;6843;308388;-71
2023/05/28 23:42:32;;;;;;;7.13;6.53;;;19.00;40.40;;;;;;20499;6843;312577;-71
2023/05/28 23:44:59;;;;;;;7.40;6.80;;;19.20;40.10;;;;;;20500;6843;310215;-72
2023/05/28 23:47:23;;;;;;;6.80;6.20;;;19.30;40.00;;;;;;20709;6843;118041;-71
2023/05/28 23:49:50;;;;;;;7.13;6.43;;;19.00;40.50;;;;;;20493;6843;278681;-72
2023/05/28 23:52:15;;;;;;;7.60;7.00;;;19.00;40.50;;;;;;20502;6843;312888;-72
2023/05/28 23:54:42;;;;;;;6.77;6.17;;;19.10;40.10;;;;;;20719;6843;117557;-72
2023/05/28 23:57:08;;;;;;;8.03;7.33;;;18.90;40.40;;;;;;20454;6843;280089;-72
2023/05/28 23:59:33;;;;;;;7.73;6.93;;;18.90;40.50;;;;;;20488;6842;305509;-71
